Northport, MI (49670)

4:50 PM EDT on July 04, 2015 (GMT -0400)
KMISUTTO2 | | Change Station
CLOSE
Current Station
Personal Weather Station
Location: Suttons Bay, MI
Elevation: 797 ft
Nearby Weather Stations

Elev 797 ft 45.01 °N, 85.64 °W | Updated 45 seconds ago

Clear
Clear
78.4 °F
Feels Like 80 °F
N
1.0
Wind Variable Wind from WSW
Gusts 1.0 mph

Today
High -- | Low -- °F
--% Chance of Precip.
Yesterday
High -- | Low -- °F
Precip. -- in
6:00 AM 9:32 PM
Waning Gibbous, 90% visible
Pressure 30.02 in
Visibility 10.0 miles
Clouds Clear
Heat Index 80 °F
Dew Point 61 °F
Humidity 55%
Rainfall 0.00 in
Snow Depth Not available.
UV 7 out of 12
Pollen 4.40 out of 12
Air Quality Not available.
Flu Activity Not available.
METAR KCVX 042034Z AUTO 31006KT 10SM CLR 22/15 A3002 RMK AO2 T02220151

More Conditions Fewer Conditions

Pressure 30.02 in
Visibility 10.0 miles
Clouds Clear
Heat Index 80 °F
Dew Point 61 °F
Humidity 55%
Rainfall 0.00 in
Snow Depth Not available.
UV 7 out of 12
Pollen 4.40 out of 12
Air Quality Not available.
Flu Activity Not available.
METAR KCVX 042034Z AUTO 31006KT 10SM CLR 22/15 A3002 RMK AO2 T02220151

More Conditions Fewer Conditions

Nowcast | as of 4:00 PM EDT on July 4, 2015

At 5 PM...mostly clear. Temperature 68. North winds 5 mph. At 7 PM...mostly clear. Temperature 67. North winds 5 mph. At 9 PM...mostly clear. Temperature 65. Light winds. At 11 PM...mostly clear. Temperature 60. Light winds.

×

10-Day Weather Forecast

×

Almanac

Astronomy

Jul. 04, 2015 Rise Set
Actual Time
Civil Twilight
Nautical Twilight
Astronomical Twilight
Moon
Length of Visible Light
Length of Day
Tomorrow will be .
, % of the Moon is Illuminated

Today's Extremes

State Highs State Lows

Community

WunderPhotos

Upload Photos

1,835,091 photos uploaded!

WunderBlogs® & News

Nearby

Air Quality

  Air Quality AQ Index Pollutant
Not available.

Snow Depth

Station Depth Elevation

Earthquake Activity

City Distance Mag. Time & Date
Minimum magnitude displayed is 2.5.

Coastal Water Temperatures

Place Temperature

Stations

Nearby Weather Stations

Station Location Temp. Windchill Dew Point Humidity Wind Precip. Elev Updated Type